Time;durP1;ratioP1;P1;durP2;ratioP2;P2;SDS_P1;SDS_P2;PMS_P1;PMS_P2;Temp;Humidity;BMP_temperature;BMP_pressure;BME280_temperature;BME280_humidity;BME280_pressure;Samples;Min_cycle;Max_cycle;Signal;HPM_P1;HPM_P2
2022/09/15 00:01:43;;;;;;;12.95;9.35;;;17.40;70.50;;;;;;5091241;28;20051;-54
2022/09/15 00:04:14;;;;;;;11.23;8.60;;;17.40;70.30;;;;;;5090209;28;20082;-51
2022/09/15 00:06:41;;;;;;;9.77;8.38;;;17.30;70.10;;;;;;5093269;28;20562;-52
2022/09/15 00:09:07;;;;;;;10.93;7.90;;;17.30;70.20;;;;;;5091134;28;20043;-51
2022/09/15 00:11:35;;;;;;;12.23;8.85;;;17.20;70.10;;;;;;5089467;28;20062;-51
2022/09/15 00:14:05;;;;;;;9.48;7.82;;;17.20;70.20;;;;;;5089789;28;20619;-53
2022/09/15 00:16:32;;;;;;;10.90;9.32;;;17.10;70.10;;;;;;5091330;28;20044;-51
2022/09/15 00:19:00;;;;;;;13.13;8.73;;;17.10;70.10;;;;;;5085483;28;20111;-53
2022/09/15 00:21:32;;;;;;;9.13;7.03;;;17.10;70.20;;;;;;5090585;28;20051;-50
2022/09/15 00:24:03;;;;;;;10.05;7.93;;;17.00;70.00;;;;;;5089563;28;20082;-52
2022/09/15 00:26:31;;;;;;;13.35;9.57;;;17.00;70.00;;;;;;5091322;28;20036;-51
2022/09/15 00:29:01;;;;;;;10.50;8.30;;;16.90;70.20;;;;;;5089731;28;20055;-51
2022/09/15 00:31:31;;;;;;;9.73;6.78;;;16.80;70.00;;;;;;5090266;28;20046;-49
2022/09/15 00:34:03;;;;;;;13.00;8.40;;;16.80;69.90;;;;;;5094646;28;20028;-52
2022/09/15 00:36:30;;;;;;;11.00;7.90;;;16.80;70.00;;;;;;5092630;28;20510;-48
2022/09/15 00:38:57;;;;;;;10.35;8.75;;;16.70;70.00;;;;;;5089321;28;20115;-51
2022/09/15 00:41:24;;;;;;;11.05;8.80;;;16.70;70.00;;;;;;5090455;28;20047;-52
2022/09/15 00:44:01;;;;;;;12.80;8.70;;;16.60;70.10;;;;;;5089384;28;20039;-52
2022/09/15 00:46:41;;;;;;;9.93;7.65;;;16.60;70.00;;;;;;5091801;28;20514;-49
2022/09/15 00:49:25;;;;;;;8.40;7.40;;;16.60;70.10;;;;;;5089252;28;20044;-49
2022/09/15 00:51:59;;;;;;;14.23;8.98;;;16.60;70.00;;;;;;5090839;28;20044;-48
2022/09/15 00:54:48;;;;;;;10.95;9.23;;;16.50;70.10;;;;;;5089927;28;20078;-49
2022/09/15 00:57:38;;;;;;;10.07;8.40;;;16.40;70.30;;;;;;5089338;28;20114;-50
2022/09/15 01:00:11;;;;;;;13.88;9.32;;;16.50;70.40;;;;;;5071146;28;20389;-49
2022/09/15 01:02:41;;;;;;;10.90;8.20;;;16.40;70.50;;;;;;5090711;28;20071;-51
2022/09/15 01:05:14;;;;;;;12.27;9.93;;;16.40;70.50;;;;;;5087508;28;20143;-51
2022/09/15 01:07:53;;;;;;;12.73;9.63;;;16.40;70.80;;;;;;5090405;28;20071;-53
2022/09/15 01:10:30;;;;;;;13.70;11.05;;;16.40;71.20;;;;;;5089448;28;20046;-53
2022/09/15 01:13:04;;;;;;;12.18;9.57;;;16.30;71.20;;;;;;5093487;28;20124;-51
2022/09/15 01:16:14;;;;;;;12.43;9.07;;;16.30;71.50;;;;;;5085237;28;20048;-50
2022/09/15 01:18:57;;;;;;;11.82;9.05;;;16.30;71.50;;;;;;5076414;28;20032;-51
2022/09/15 01:21:53;;;;;;;12.80;8.05;;;16.30;71.30;;;;;;5093712;28;20096;-49
2022/09/15 01:25:04;;;;;;;11.40;9.43;;;16.30;71.10;;;;;;5076898;28;20052;-50
2022/09/15 01:27:53;;;;;;;12.55;9.93;;;16.30;71.60;;;;;;5088510;28;20046;-52
2022/09/15 01:30:23;;;;;;;12.25;9.43;;;16.20;71.50;;;;;;5077399;28;20032;-49
2022/09/15 01:33:08;;;;;;;14.77;10.45;;;16.20;71.20;;;;;;5066393;28;20039;-50
2022/09/15 01:35:56;;;;;;;11.20;9.10;;;16.20;71.30;;;;;;5087020;28;20063;-50
2022/09/15 01:38:36;;;;;;;11.55;9.30;;;16.20;71.10;;;;;;5090528;28;20126;-52
2022/09/15 01:41:29;;;;;;;10.57;8.70;;;16.20;71.30;;;;;;5098423;28;20456;-53
2022/09/15 01:43:57;;;;;;;12.50;9.77;;;16.20;71.30;;;;;;5093315;28;20040;-53
2022/09/15 01:46:31;;;;;;;12.57;9.05;;;16.20;71.10;;;;;;5092534;28;20051;-53
2022/09/15 01:49:00;;;;;;;10.77;8.55;;;16.10;71.00;;;;;;5092986;28;20048;-52
2022/09/15 01:51:32;;;;;;;12.77;9.10;;;16.10;70.80;;;;;;5096299;28;20036;-52
2022/09/15 01:54:02;;;;;;;10.32;8.43;;;16.10;70.70;;;;;;5093707;28;20553;-52
2022/09/15 01:56:37;;;;;;;15.73;10.20;;;16.10;70.70;;;;;;5093096;28;20568;-48
2022/09/15 01:59:08;;;;;;;14.45;10.25;;;16.10;71.10;;;;;;5092066;28;20602;-51
2022/09/15 02:01:49;;;;;;;14.77;9.65;;;16.00;71.20;;;;;;5095676;28;20066;-52
2022/09/15 02:04:35;;;;;;;10.25;9.00;;;16.00;71.50;;;;;;5070964;28;20128;-52
2022/09/15 02:07:13;;;;;;;12.27;8.63;;;16.00;71.40;;;;;;5089184;28;20044;-51
2022/09/15 02:09:54;;;;;;;20.90;8.90;;;16.00;71.10;;;;;;5092354;28;20047;-52
2022/09/15 02:12:49;;;;;;;14.95;9.35;;;16.00;71.00;;;;;;5092879;28;20036;-53
2022/09/15 02:15:26;;;;;;;11.88;9.32;;;15.90;71.30;;;;;;5091872;28;20032;-53
2022/09/15 02:17:56;;;;;;;14.85;11.13;;;16.00;71.60;;;;;;5094119;28;20058;-51
2022/09/15 02:20:56;;;;;;;11.57;10.07;;;16.00;71.90;;;;;;5085001;28;20050;-49
2022/09/15 02:23:31;;;;;;;14.97;10.47;;;16.00;72.40;;;;;;5074808;28;20507;-52
2022/09/15 02:26:07;;;;;;;11.75;9.57;;;16.00;72.30;;;;;;5092621;28;20123;-50
2022/09/15 02:28:37;;;;;;;12.38;8.73;;;16.00;72.50;;;;;;5097863;28;20032;-48
2022/09/15 02:31:10;;;;;;;13.85;10.43;;;16.00;72.40;;;;;;5090102;28;20048;-51
2022/09/15 02:33:52;;;;;;;12.18;10.65;;;16.10;72.40;;;;;;5074120;28;20036;-53
2022/09/15 02:36:20;;;;;;;13.27;9.52;;;16.10;73.00;;;;;;5092099;28;20412;-48
2022/09/15 02:38:53;;;;;;;13.18;10.40;;;16.10;72.60;;;;;;5088291;28;20036;-52
2022/09/15 02:41:22;;;;;;;13.60;9.70;;;16.10;72.90;;;;;;5090099;28;20618;-52
2022/09/15 02:43:50;;;;;;;12.63;8.65;;;16.20;72.90;;;;;;5091611;28;20515;-50
2022/09/15 02:46:21;;;;;;;9.65;8.00;;;16.20;73.00;;;;;;5074262;28;20047;-53
2022/09/15 02:48:47;;;;;;;10.70;8.07;;;16.30;73.00;;;;;;5093386;28;20040;-48
2022/09/15 02:51:21;;;;;;;12.82;9.13;;;16.30;73.00;;;;;;5091070;28;20443;-53
2022/09/15 02:53:47;;;;;;;15.02;10.52;;;16.30;73.00;;;;;;5091350;28;20099;-49
2022/09/15 02:56:15;;;;;;;10.88;9.55;;;16.30;73.00;;;;;;5096685;28;20054;-50
2022/09/15 02:58:42;;;;;;;15.65;10.02;;;16.40;73.10;;;;;;5091315;28;20043;-52
2022/09/15 03:01:13;;;;;;;14.73;10.05;;;16.40;73.20;;;;;;5092221;28;20051;-53
2022/09/15 03:03:43;;;;;;;12.10;9.45;;;16.40;73.30;;;;;;5095910;28;20062;-49
2022/09/15 03:06:16;;;;;;;13.07;10.32;;;16.40;73.30;;;;;;5095438;28;20040;-53
2022/09/15 03:08:49;;;;;;;14.48;10.73;;;16.50;73.40;;;;;;5091284;28;20579;-52
2022/09/15 03:11:23;;;;;;;15.77;10.77;;;16.50;73.40;;;;;;5091624;28;20055;-52
2022/09/15 03:14:01;;;;;;;13.18;11.13;;;16.50;73.30;;;;;;5091860;28;20040;-48
2022/09/15 03:16:33;;;;;;;12.75;10.57;;;16.60;73.70;;;;;;5073875;28;20047;-48
2022/09/15 03:19:02;;;;;;;14.75;10.38;;;16.60;73.40;;;;;;5091630;28;20128;-51
2022/09/15 03:21:29;;;;;;;15.30;10.70;;;16.60;73.30;;;;;;5071882;28;20051;-53
2022/09/15 03:23:57;;;;;;;12.00;10.40;;;16.70;73.30;;;;;;5076426;28;20036;-51
2022/09/15 03:26:24;;;;;;;16.50;11.18;;;16.70;73.30;;;;;;5097026;28;20040;-52
2022/09/15 03:28:54;;;;;;;14.05;11.38;;;16.70;73.30;;;;;;5090669;28;20062;-53
2022/09/15 03:31:25;;;;;;;16.13;10.55;;;16.70;73.30;;;;;;5084140;28;20629;-52
2022/09/15 03:33:57;;;;;;;18.73;10.70;;;16.80;73.20;;;;;;5090218;28;20051;-49
2022/09/15 03:36:25;;;;;;;14.60;11.00;;;16.80;73.20;;;;;;5095422;28;20040;-53
2022/09/15 03:38:57;;;;;;;14.20;10.27;;;16.80;73.10;;;;;;5090224;28;20036;-53
2022/09/15 03:41:28;;;;;;;12.23;9.55;;;16.80;72.90;;;;;;5071438;28;20444;-53
2022/09/15 03:43:59;;;;;;;14.05;11.30;;;16.90;72.90;;;;;;5087423;28;20070;-50
2022/09/15 03:46:28;;;;;;;13.07;9.93;;;16.90;73.30;;;;;;5090466;28;20028;-53
2022/09/15 03:48:57;;;;;;;12.73;9.75;;;16.90;73.10;;;;;;5090680;28;20047;-51
2022/09/15 03:51:24;;;;;;;13.63;10.57;;;16.90;73.00;;;;;;5076057;28;20050;-52
2022/09/15 03:53:54;;;;;;;13.68;10.23;;;16.90;72.90;;;;;;5092699;28;20040;-51
2022/09/15 03:56:30;;;;;;;14.52;9.40;;;17.00;72.90;;;;;;5082967;28;20119;-51
2022/09/15 03:59:02;;;;;;;12.95;9.77;;;17.00;72.90;;;;;;5091351;28;20594;-53
2022/09/15 04:01:29;;;;;;;12.60;9.65;;;17.00;72.90;;;;;;5090541;28;20050;-50
2022/09/15 04:03:57;;;;;;;12.85;9.40;;;17.00;73.40;;;;;;5091033;28;20094;-53
2022/09/15 04:06:26;;;;;;;13.30;9.85;;;17.00;72.70;;;;;;5071719;28;20086;-49
2022/09/15 04:08:53;;;;;;;12.25;10.38;;;17.00;72.80;;;;;;5090308;28;20079;-49
2022/09/15 04:11:28;;;;;;;13.38;9.73;;;17.00;72.70;;;;;;5092473;28;20050;-53
2022/09/15 04:13:55;;;;;;;13.88;9.68;;;17.10;72.70;;;;;;5089480;28;20713;-49
2022/09/15 04:16:23;;;;;;;13.75;10.52;;;17.10;72.60;;;;;;5090144;28;20040;-48
2022/09/15 04:18:54;;;;;;;14.00;10.63;;;17.00;72.60;;;;;;5089819;28;20544;-50
2022/09/15 04:21:24;;;;;;;12.90;9.77;;;17.00;72.50;;;;;;5074766;28;20062;-49
2022/09/15 04:23:58;;;;;;;12.77;10.55;;;17.10;72.60;;;;;;5087023;28;20446;-50
2022/09/15 04:26:32;;;;;;;14.18;10.15;;;17.00;72.50;;;;;;5090684;28;20051;-52
2022/09/15 04:29:00;;;;;;;19.88;10.52;;;17.10;72.70;;;;;;5090388;28;20040;-53
2022/09/15 04:31:32;;;;;;;14.38;10.60;;;17.10;72.50;;;;;;5084076;28;20043;-52
2022/09/15 04:34:02;;;;;;;16.00;10.82;;;17.00;72.30;;;;;;5089314;28;20067;-49
2022/09/15 04:36:33;;;;;;;16.88;10.68;;;17.00;72.20;;;;;;5093855;28;20055;-49
2022/09/15 04:39:00;;;;;;;16.05;11.02;;;17.00;72.20;;;;;;5068226;28;20114;-52
2022/09/15 04:41:27;;;;;;;13.85;10.55;;;17.00;72.00;;;;;;5089047;28;20399;-50
2022/09/15 04:43:53;;;;;;;15.55;11.32;;;16.90;72.00;;;;;;5087040;28;20568;-50
2022/09/15 04:46:20;;;;;;;14.75;10.25;;;16.90;72.00;;;;;;5080284;28;20051;-47
2022/09/15 04:48:47;;;;;;;14.52;9.85;;;16.90;72.00;;;;;;5085604;28;20237;-49
2022/09/15 04:51:17;;;;;;;15.07;10.55;;;16.80;72.00;;;;;;5081201;28;20041;-48
2022/09/15 04:53:45;;;;;;;12.70;9.85;;;16.80;72.10;;;;;;5061144;28;20412;-50
2022/09/15 04:56:18;;;;;;;12.65;9.70;;;16.80;72.10;;;;;;5072958;28;20040;-53
2022/09/15 04:58:51;;;;;;;12.90;9.65;;;16.70;72.20;;;;;;5088849;28;20046;-54
2022/09/15 05:01:25;;;;;;;15.50;10.63;;;16.70;72.30;;;;;;5088091;28;20040;-54
2022/09/15 05:03:53;;;;;;;13.50;10.43;;;16.70;72.40;;;;;;5078018;28;20086;-55
2022/09/15 05:06:22;;;;;;;16.33;11.13;;;16.70;72.50;;;;;;5083073;28;20048;-54
2022/09/15 05:08:51;;;;;;;14.60;10.13;;;16.60;72.70;;;;;;5084736;28;20043;-55
2022/09/15 05:11:18;;;;;;;11.52;9.55;;;16.60;72.70;;;;;;5079206;28;20488;-55
2022/09/15 05:13:48;;;;;;;16.17;10.88;;;16.60;72.70;;;;;;5081635;28;20046;-54
2022/09/15 05:16:17;;;;;;;17.42;10.68;;;16.60;72.70;;;;;;5087274;28;20119;-55
2022/09/15 05:18:46;;;;;;;12.98;10.18;;;16.60;72.70;;;;;;5084211;28;20040;-55
2022/09/15 05:21:14;;;;;;;16.55;9.55;;;16.60;72.70;;;;;;5082309;28;20055;-55
2022/09/15 05:23:42;;;;;;;15.73;11.20;;;16.60;72.80;;;;;;5088165;28;20044;-55
2022/09/15 05:26:15;;;;;;;18.02;9.80;;;16.70;72.80;;;;;;5095329;28;20074;-55
2022/09/15 05:28:42;;;;;;;13.20;9.57;;;16.60;73.00;;;;;;5091628;28;20109;-55
2022/09/15 05:31:11;;;;;;;15.85;10.73;;;16.60;73.00;;;;;;5099447;28;20048;-55
2022/09/15 05:33:39;;;;;;;14.27;10.35;;;16.60;73.10;;;;;;5095792;28;20044;-55
2022/09/15 05:36:06;;;;;;;14.82;11.20;;;16.60;73.20;;;;;;5095950;28;20042;-55
2022/09/15 05:38:33;;;;;;;14.43;10.57;;;16.60;73.30;;;;;;5084318;28;20112;-55
2022/09/15 05:41:03;;;;;;;11.98;9.57;;;16.70;73.50;;;;;;5092521;28;20407;-53
2022/09/15 05:43:31;;;;;;;12.23;9.85;;;16.70;73.70;;;;;;5091080;28;20392;-54
2022/09/15 05:45:58;;;;;;;14.38;10.45;;;16.70;73.60;;;;;;5070431;28;20051;-55
2022/09/15 05:48:26;;;;;;;11.63;9.15;;;16.70;73.40;;;;;;5082811;28;20047;-55
2022/09/15 05:50:54;;;;;;;13.35;9.80;;;16.70;74.10;;;;;;5084044;28;20416;-55
2022/09/15 05:53:22;;;;;;;16.25;9.98;;;16.80;73.50;;;;;;5093167;28;20036;-55
2022/09/15 05:55:57;;;;;;;13.50;10.10;;;16.80;73.50;;;;;;5101049;28;20043;-53
2022/09/15 05:58:25;;;;;;;12.13;9.57;;;16.80;73.60;;;;;;5095515;28;20039;-55
2022/09/15 06:00:54;;;;;;;15.13;10.05;;;16.80;73.40;;;;;;5095753;28;20042;-54
2022/09/15 06:03:22;;;;;;;12.82;9.65;;;16.80;73.40;;;;;;5096593;28;20480;-55
2022/09/15 06:05:59;;;;;;;14.57;9.98;;;16.80;73.50;;;;;;5075299;28;20055;-56
2022/09/15 06:08:33;;;;;;;14.60;9.95;;;16.90;73.70;;;;;;5095856;28;20071;-53
2022/09/15 06:11:05;;;;;;;15.10;10.15;;;16.90;73.70;;;;;;5095564;28;20412;-54
2022/09/15 06:13:32;;;;;;;13.93;9.95;;;16.90;73.80;;;;;;5105189;28;20063;-55
2022/09/15 06:16:00;;;;;;;13.40;10.52;;;17.00;73.70;;;;;;5090347;28;20043;-54
2022/09/15 06:18:27;;;;;;;14.63;10.70;;;17.00;73.80;;;;;;5086685;28;20567;-53
2022/09/15 06:20:54;;;;;;;14.70;10.88;;;17.00;73.80;;;;;;5086551;28;20033;-54
2022/09/15 06:23:20;;;;;;;12.52;9.93;;;17.10;73.80;;;;;;5086235;28;20044;-54
2022/09/15 06:25:47;;;;;;;14.23;10.90;;;17.10;73.70;;;;;;5086099;28;20071;-53
2022/09/15 06:28:13;;;;;;;13.85;10.35;;;17.10;73.70;;;;;;5105640;22;20048;-52
2022/09/15 06:30:41;;;;;;;19.88;10.18;;;17.20;73.80;;;;;;5061382;28;20037;-51
2022/09/15 06:33:07;;;;;;;14.50;10.68;;;17.20;73.80;;;;;;5069527;28;20029;-50
2022/09/15 06:35:34;;;;;;;12.80;10.20;;;17.20;73.60;;;;;;5066289;28;20024;-50
2022/09/15 06:38:00;;;;;;;13.80;10.35;;;17.30;73.60;;;;;;5067605;28;20036;-54
2022/09/15 06:40:27;;;;;;;16.08;11.23;;;17.30;73.70;;;;;;5079154;28;20420;-53
2022/09/15 06:42:55;;;;;;;13.93;11.05;;;17.30;73.60;;;;;;5071384;28;20044;-54
2022/09/15 06:45:22;;;;;;;13.95;10.70;;;17.40;73.60;;;;;;5074913;28;20489;-52
2022/09/15 06:47:51;;;;;;;12.65;11.07;;;17.40;73.50;;;;;;5070616;28;20576;-52
2022/09/15 06:50:37;;;;;;;15.25;10.27;;;17.40;73.50;;;;;;5070988;28;20051;-54
2022/09/15 06:53:04;;;;;;;12.00;10.15;;;17.40;73.40;;;;;;5074001;28;20120;-54
2022/09/15 06:55:31;;;;;;;10.73;9.57;;;17.50;73.30;;;;;;5072448;28;20044;-51
2022/09/15 06:57:57;;;;;;;15.70;11.10;;;17.50;73.20;;;;;;5069853;28;20044;-53
2022/09/15 07:00:24;;;;;;;13.05;9.65;;;17.50;73.20;;;;;;5070412;28;20111;-50
2022/09/15 07:02:52;;;;;;;16.45;11.00;;;17.50;73.40;;;;;;5063016;28;20052;-53
2022/09/15 07:05:19;;;;;;;15.88;11.00;;;17.50;73.30;;;;;;5069961;28;20060;-54
2022/09/15 07:07:45;;;;;;;14.60;11.88;;;17.60;73.30;;;;;;5067525;28;20055;-52
2022/09/15 07:10:12;;;;;;;18.13;12.20;;;17.60;73.30;;;;;;5077011;28;20044;-53
2022/09/15 07:12:38;;;;;;;17.02;12.18;;;17.60;73.20;;;;;;5060576;28;20036;-51
2022/09/15 07:15:06;;;;;;;15.45;11.27;;;17.60;73.30;;;;;;5061827;28;20043;-50
2022/09/15 07:17:32;;;;;;;16.40;12.63;;;17.70;73.30;;;;;;5069136;28;20075;-54
2022/09/15 07:20:00;;;;;;;17.50;12.90;;;17.70;73.30;;;;;;5063415;28;20041;-55
2022/09/15 07:22:26;;;;;;;16.92;12.65;;;17.70;73.30;;;;;;5064051;28;20450;-55
2022/09/15 07:24:53;;;;;;;18.45;14.30;;;17.80;73.40;;;;;;5073114;28;20431;-53
2022/09/15 07:27:23;;;;;;;16.92;13.52;;;17.80;73.40;;;;;;5074835;28;20055;-55
2022/09/15 07:29:50;;;;;;;17.30;13.30;;;17.80;73.40;;;;;;5066250;28;20048;-54
2022/09/15 07:32:17;;;;;;;18.83;13.23;;;17.90;73.80;;;;;;5055508;28;20056;-54
2022/09/15 07:34:43;;;;;;;15.82;12.30;;;17.90;73.80;;;;;;5070233;28;20040;-55
2022/09/15 07:37:10;;;;;;;17.67;13.18;;;18.00;73.90;;;;;;5072387;28;20043;-54
2022/09/15 07:39:37;;;;;;;18.83;13.35;;;18.10;74.00;;;;;;5072681;28;20046;-55
2022/09/15 07:42:03;;;;;;;17.75;12.40;;;18.20;73.80;;;;;;5061752;28;20043;-54
2022/09/15 07:44:32;;;;;;;20.60;12.27;;;18.30;73.60;;;;;;5053751;28;20043;-54
2022/09/15 07:46:59;;;;;;;19.40;12.68;;;18.40;73.50;;;;;;5062637;28;20119;-54
2022/09/15 07:49:26;;;;;;;18.00;12.68;;;18.50;73.20;;;;;;5079513;28;20404;-55
2022/09/15 07:51:52;;;;;;;18.88;12.65;;;18.60;72.90;;;;;;5067736;28;20089;-53
2022/09/15 07:54:19;;;;;;;18.08;13.13;;;18.70;72.70;;;;;;5086041;28;20055;-53
2022/09/15 07:56:48;;;;;;;15.05;12.65;;;18.70;72.40;;;;;;5064753;28;20073;-55
2022/09/15 07:59:15;;;;;;;18.55;12.48;;;18.80;72.50;;;;;;5063884;28;20037;-55
2022/09/15 08:01:41;;;;;;;17.20;12.75;;;18.80;72.40;;;;;;5070132;28;20048;-50
2022/09/15 08:04:08;;;;;;;14.00;11.38;;;18.80;72.30;;;;;;5070189;28;20032;-52
2022/09/15 08:06:35;;;;;;;14.98;11.70;;;18.80;72.20;;;;;;5053445;28;20037;-54
2022/09/15 08:09:02;;;;;;;14.38;10.93;;;18.80;72.20;;;;;;5073208;28;20668;-52
2022/09/15 08:11:29;;;;;;;13.65;10.63;;;18.90;72.40;;;;;;5078984;28;20042;-55
2022/09/15 08:14:01;;;;;;;18.88;11.88;;;18.90;72.60;;;;;;5075256;28;20044;-53
2022/09/15 08:16:27;;;;;;;13.27;9.80;;;18.90;72.70;;;;;;5070231;28;20036;-54
2022/09/15 08:18:54;;;;;;;12.15;9.65;;;19.00;72.40;;;;;;5070291;28;20036;-55
2022/09/15 08:21:21;;;;;;;12.70;10.70;;;19.00;72.80;;;;;;5072757;28;20036;-55
2022/09/15 08:23:56;;;;;;;13.27;9.55;;;19.00;72.30;;;;;;5072845;28;20036;-54
2022/09/15 08:26:24;;;;;;;11.35;9.73;;;19.10;72.50;;;;;;5073324;28;20047;-53
2022/09/15 08:28:51;;;;;;;12.80;9.85;;;19.10;72.40;;;;;;5065173;28;20819;-54
2022/09/15 08:31:18;;;;;;;11.50;9.50;;;19.20;72.30;;;;;;5062921;28;20040;-55
2022/09/15 08:33:50;;;;;;;10.35;8.30;;;19.30;72.10;;;;;;5074349;28;20028;-55
2022/09/15 08:36:17;;;;;;;10.32;8.63;;;19.40;72.00;;;;;;5059609;28;20587;-55
2022/09/15 08:38:45;;;;;;;13.07;8.13;;;19.40;71.80;;;;;;5065688;28;20079;-53
2022/09/15 08:41:26;;;;;;;11.60;8.75;;;19.50;71.20;;;;;;5069134;28;20140;-55
2022/09/15 08:44:39;;;;;;;12.75;7.20;;;19.60;71.20;;;;;;5071927;28;20052;-51
2022/09/15 08:47:22;;;;;;;10.55;6.68;;;19.60;71.10;;;;;;5062762;28;20116;-55
2022/09/15 08:49:49;;;;;;;12.40;8.02;;;19.80;71.20;;;;;;5058234;28;20119;-54
2022/09/15 08:52:44;;;;;;;7.00;5.70;;;19.80;70.90;;;;;;5066928;28;20151;-55
2022/09/15 08:55:16;;;;;;;5.47;4.93;;;19.90;70.40;;;;;;5059451;28;20058;-54
2022/09/15 08:57:43;;;;;;;6.40;4.93;;;20.00;70.40;;;;;;5065160;28;20116;-54
2022/09/15 09:00:15;;;;;;;8.52;5.40;;;20.10;69.50;;;;;;5064017;28;20040;-55
2022/09/15 09:03:14;;;;;;;7.37;5.23;;;20.20;69.10;;;;;;5068913;28;20068;-55
2022/09/15 09:05:54;;;;;;;6.80;4.35;;;20.30;69.00;;;;;;5067859;28;20048;-55
2022/09/15 09:08:42;;;;;;;4.63;3.40;;;20.40;68.00;;;;;;5052480;28;20038;-56
2022/09/15 09:11:28;;;;;;;4.63;3.50;;;20.40;67.90;;;;;;5070592;28;20064;-55
2022/09/15 09:14:17;;;;;;;5.10;3.72;;;20.50;67.00;;;;;;5066689;28;20451;-53
2022/09/15 09:17:16;;;;;;;5.03;3.65;;;20.60;66.80;;;;;;5065474;28;20047;-55
2022/09/15 09:20:10;;;;;;;4.70;3.60;;;20.70;67.00;;;;;;5074059;28;20040;-55
2022/09/15 09:22:40;;;;;;;4.63;3.78;;;20.80;66.10;;;;;;5065990;28;20048;-55
2022/09/15 09:25:12;;;;;;;6.40;3.25;;;20.80;66.80;;;;;;5062457;28;20478;-55
2022/09/15 09:27:54;;;;;;;6.78;3.97;;;20.90;66.20;;;;;;5057816;28;20040;-54
2022/09/15 09:30:23;;;;;;;5.20;3.08;;;20.90;66.00;;;;;;5068040;28;20056;-55
2022/09/15 09:33:22;;;;;;;4.63;3.28;;;21.00;65.40;;;;;;5068401;28;20105;-55
2022/09/15 09:35:51;;;;;;;5.07;3.28;;;21.10;64.80;;;;;;5065669;28;20048;-55
2022/09/15 09:38:21;;;;;;;4.80;3.80;;;21.10;65.20;;;;;;5060806;28;20112;-55
2022/09/15 09:40:49;;;;;;;5.57;3.83;;;21.10;65.50;;;;;;5052899;28;20047;-54
2022/09/15 09:43:16;;;;;;;4.85;4.18;;;21.10;65.20;;;;;;5063264;28;20045;-55
2022/09/15 09:45:44;;;;;;;5.05;4.45;;;21.20;65.30;;;;;;5083041;28;20516;-55
2022/09/15 09:48:17;;;;;;;7.15;4.22;;;21.20;64.80;;;;;;5076818;28;20520;-56
2022/09/15 09:50:44;;;;;;;4.97;3.95;;;21.30;64.60;;;;;;5067438;28;20040;-55
2022/09/15 09:53:25;;;;;;;6.60;3.70;;;21.30;65.10;;;;;;5061955;28;20041;-55
2022/09/15 09:55:54;;;;;;;5.82;3.75;;;21.40;64.80;;;;;;5059121;28;20043;-52
2022/09/15 09:58:24;;;;;;;5.72;3.78;;;21.40;64.50;;;;;;5066689;28;20517;-53
2022/09/15 10:00:52;;;;;;;5.07;3.97;;;21.50;64.30;;;;;;5068121;28;20032;-52
2022/09/15 10:03:23;;;;;;;8.23;4.07;;;21.60;64.50;;;;;;5071977;28;20053;-53
2022/09/15 10:06:00;;;;;;;5.03;3.15;;;21.70;64.50;;;;;;5072255;28;20048;-52
2022/09/15 10:08:27;;;;;;;5.15;2.65;;;21.80;63.80;;;;;;5056525;28;20132;-51
2022/09/15 10:11:01;;;;;;;4.07;3.05;;;21.80;63.00;;;;;;5071326;28;20054;-54
2022/09/15 10:13:27;;;;;;;3.58;3.10;;;21.90;62.50;;;;;;5061713;28;20052;-51
2022/09/15 10:15:58;;;;;;;4.40;2.33;;;21.90;61.80;;;;;;5054580;28;20503;-52
2022/09/15 10:18:32;;;;;;;4.40;3.05;;;21.90;61.70;;;;;;5072310;28;20036;-55
2022/09/15 10:21:01;;;;;;;3.35;2.67;;;21.90;60.90;;;;;;5068510;28;20037;-53
2022/09/15 10:23:30;;;;;;;4.68;2.65;;;22.00;62.30;;;;;;5071533;28;20044;-51
2022/09/15 10:26:17;;;;;;;3.05;2.72;;;21.90;61.60;;;;;;5070916;28;20063;-54
2022/09/15 10:29:11;;;;;;;4.78;2.90;;;22.00;61.00;;;;;;5067292;28;20047;-54
2022/09/15 10:31:38;;;;;;;4.53;2.47;;;22.00;60.90;;;;;;5065781;28;20041;-51
2022/09/15 10:34:31;;;;;;;4.13;2.92;;;22.00;62.30;;;;;;5070806;28;20041;-53
2022/09/15 10:37:25;;;;;;;4.25;3.10;;;22.00;61.00;;;;;;5068527;28;20028;-54
2022/09/15 10:39:58;;;;;;;4.60;1.95;;;22.10;61.50;;;;;;5050870;28;20480;-54
2022/09/15 10:42:36;;;;;;;3.28;2.47;;;22.20;60.40;;;;;;5067426;28;20495;-55
2022/09/15 10:45:34;;;;;;;5.13;2.15;;;22.30;60.20;;;;;;5068739;28;20067;-51
2022/09/15 10:48:27;;;;;;;1.85;1.60;;;22.30;58.50;;;;;;5059597;28;20496;-52
2022/09/15 10:51:40;;;;;;;4.82;2.13;;;22.30;58.70;;;;;;5071207;28;20459;-51
2022/09/15 10:54:13;;;;;;;2.28;1.48;;;22.30;58.30;;;;;;4992267;28;20120;-52
2022/09/15 10:56:41;;;;;;;;;;;22.30;58.20;;;;;;4997365;28;20046;-50
2022/09/15 10:59:20;;;;;;;2.42;1.45;;;22.30;59.40;;;;;;5028932;28;19928;-54
2022/09/15 11:02:05;;;;;;;2.90;1.55;;;22.30;57.60;;;;;;5072026;28;20099;-55
2022/09/15 11:04:43;;;;;;;3.03;2.10;;;22.20;57.60;;;;;;5076571;28;20040;-53
2022/09/15 11:07:23;;;;;;;2.03;1.42;;;22.20;57.00;;;;;;5067258;28;20052;-55
2022/09/15 11:10:15;;;;;;;5.63;2.00;;;22.10;57.00;;;;;;5057067;28;20045;-55
2022/09/15 11:13:11;;;;;;;4.25;1.90;;;22.10;57.50;;;;;;5058485;28;20037;-51
2022/09/15 11:16:15;;;;;;;2.55;1.48;;;22.10;57.80;;;;;;5068321;28;20043;-55
2022/09/15 11:19:08;;;;;;;1.95;0.88;;;22.00;57.30;;;;;;5066913;28;20044;-53
2022/09/15 11:21:55;;;;;;;2.30;1.02;;;21.90;56.80;;;;;;5072652;28;20070;-54
2022/09/15 11:24:28;;;;;;;3.88;0.93;;;21.90;57.10;;;;;;5068323;28;20501;-55
2022/09/15 11:27:22;;;;;;;4.00;0.70;;;21.90;57.20;;;;;;5071280;28;20048;-55
2022/09/15 11:30:02;;;;;;;1.88;0.82;;;21.90;56.10;;;;;;5051932;28;20486;-51
2022/09/15 11:32:56;;;;;;;2.85;0.80;;;21.90;55.90;;;;;;5066939;28;20493;-54
2022/09/15 11:35:38;;;;;;;2.45;0.60;;;22.00;56.10;;;;;;5067604;28;20102;-51
2022/09/15 11:38:29;;;;;;;1.67;0.75;;;22.00;55.60;;;;;;5071756;28;20043;-51
2022/09/15 11:41:16;;;;;;;3.10;0.70;;;22.00;55.40;;;;;;5072135;28;20040;-55
2022/09/15 11:43:53;;;;;;;2.60;0.82;;;22.00;54.90;;;;;;5072091;28;20058;-55
2022/09/15 11:46:43;;;;;;;3.03;0.68;;;22.00;55.50;;;;;;5069989;28;20046;-51
2022/09/15 11:49:17;;;;;;;2.83;0.80;;;22.00;55.30;;;;;;5067125;28;20044;-53
2022/09/15 11:51:54;;;;;;;2.38;0.80;;;22.00;55.50;;;;;;5074683;28;20124;-50
2022/09/15 11:54:33;;;;;;;1.70;0.80;;;21.90;55.50;;;;;;5068788;28;20048;-55
2022/09/15 11:57:00;;;;;;;3.85;0.70;;;21.90;54.30;;;;;;5070893;28;20108;-55
2022/09/15 11:59:31;;;;;;;1.58;1.05;;;21.90;55.70;;;;;;5067562;28;20396;-53
2022/09/15 12:02:27;;;;;;;1.17;0.70;;;21.80;55.80;;;;;;5070706;28;20043;-52
2022/09/15 12:05:22;;;;;;;2.15;0.77;;;21.80;55.20;;;;;;5061706;28;20129;-54
2022/09/15 12:07:54;;;;;;;2.97;1.00;;;21.80;56.00;;;;;;5069337;28;20119;-55
2022/09/15 12:10:35;;;;;;;3.85;1.33;;;21.70;56.20;;;;;;5075440;28;20036;-51
2022/09/15 12:13:03;;;;;;;2.33;0.77;;;21.70;56.20;;;;;;5066142;28;20048;-53
2022/09/15 12:15:31;;;;;;;4.35;0.98;;;21.60;56.20;;;;;;5084963;28;20062;-54
2022/09/15 12:18:06;;;;;;;5.57;0.80;;;21.60;56.40;;;;;;5074313;28;20045;-55
2022/09/15 12:21:01;;;;;;;1.85;1.00;;;21.50;56.60;;;;;;5068886;28;20028;-55
2022/09/15 12:23:35;;;;;;;2.53;1.00;;;21.40;56.30;;;;;;5068881;28;20058;-55
2022/09/15 12:26:04;;;;;;;2.85;0.80;;;21.30;56.70;;;;;;5079420;28;20045;-55
2022/09/15 12:28:38;;;;;;;3.63;1.15;;;21.20;57.40;;;;;;5079337;28;20491;-54
2022/09/15 12:31:13;;;;;;;1.55;1.02;;;21.10;57.40;;;;;;5068315;28;20119;-52
2022/09/15 12:33:44;;;;;;;2.90;1.15;;;21.10;57.80;;;;;;5070327;28;20071;-54
2022/09/15 12:36:29;;;;;;;1.83;0.80;;;21.00;58.30;;;;;;5070479;28;20094;-54
2022/09/15 12:38:57;;;;;;;3.80;2.15;;;21.00;58.30;;;;;;5054520;28;20476;-56
2022/09/15 12:41:24;;;;;;;4.03;0.85;;;20.90;58.50;;;;;;5076753;28;20036;-53
2022/09/15 12:43:57;;;;;;;2.28;1.02;;;20.90;58.70;;;;;;5068462;28;20048;-56
2022/09/15 12:46:25;;;;;;;2.42;0.80;;;20.80;58.80;;;;;;5070257;28;20050;-56
2022/09/15 12:48:58;;;;;;;8.60;1.42;;;20.80;59.40;;;;;;5081647;28;20036;-54
2022/09/15 12:51:27;;;;;;;3.45;1.27;;;20.80;59.40;;;;;;5047466;28;20520;-52
2022/09/15 12:54:03;;;;;;;2.97;1.17;;;20.70;59.60;;;;;;5065392;28;20046;-55
2022/09/15 12:56:32;;;;;;;4.40;1.35;;;20.70;60.10;;;;;;5069380;28;20036;-53
2022/09/15 12:59:04;;;;;;;3.67;1.30;;;20.60;60.50;;;;;;5069913;28;20036;-55
2022/09/15 13:01:48;;;;;;;5.28;1.30;;;20.50;61.20;;;;;;5109121;22;20036;-54
2022/09/15 13:04:49;;;;;;;1.55;1.20;;;20.50;61.90;;;;;;5080286;28;20081;-52
2022/09/15 13:07:17;;;;;;;1.58;0.80;;;20.40;61.70;;;;;;5109637;27;20090;-51
2022/09/15 13:09:45;;;;;;;2.20;0.93;;;20.30;61.80;;;;;;5107427;27;20669;-54
2022/09/15 13:12:16;;;;;;;1.50;0.63;;;20.30;61.60;;;;;;5107802;28;20050;-55